Fairfax, Vermont
Current Conditions -  °F | °C
As of 6:54 PM on Saturday 25 Oct 2014 (Local Time) from KBTV Reporting Station
Light Rain Light Rain  
Wind Chill: 53°   Ceiling: 9500
Heat Index: 53°   Visibility: 10mi
Dew Point: 47°   Wind: 8mph
Humidity: 80%   Direction: 180°S
Pressure: 29.49"   Gusts: NA
Location:  44.67°N, 73.01°W
Report Text: KBTV 252254Z 18007KT 10SM -RA SCT070 OVC095 12/08 A2949 RMK AO2 SLP990 P0002 T01170083
Loading
Personal Weather Stations






























Interactive Weather Map
Tropical Storm Tracking
New forecast layout! Learn more

10-Day Weather Forecast

Advertisements
Track Severe Weather on mobile